createdAt,value
2023-10-22T00:00:54.778Z,983.73
2023-10-22T00:01:54.755Z,983.74
2023-10-22T00:02:54.786Z,983.75
2023-10-22T00:03:54.832Z,983.75
2023-10-22T00:06:06.095Z,983.76
2023-10-22T00:07:07.038Z,983.77
2023-10-22T00:08:07.038Z,983.76
2023-10-22T00:09:07.047Z,983.77
2023-10-22T00:10:07.030Z,983.77
2023-10-22T00:11:07.001Z,983.79
2023-10-22T00:12:07.044Z,983.77
2023-10-22T00:13:06.990Z,983.79
2023-10-22T00:14:06.960Z,983.81
2023-10-22T00:15:07.036Z,983.81
2023-10-22T00:16:06.964Z,983.81
2023-10-22T00:17:06.930Z,983.81
2023-10-22T00:18:06.995Z,983.81
2023-10-22T00:19:06.940Z,983.81
2023-10-22T00:20:06.890Z,983.80
2023-10-22T00:21:06.915Z,983.81
2023-10-22T00:22:06.874Z,983.83
2023-10-22T00:23:06.867Z,983.84
2023-10-22T00:24:06.877Z,983.85
2023-10-22T00:25:06.908Z,983.86
2023-10-22T00:26:07.766Z,983.88
2023-10-22T00:27:06.860Z,983.88
2023-10-22T00:28:06.806Z,983.87
2023-10-22T00:29:06.802Z,983.87
2023-10-22T00:30:06.880Z,983.89
2023-10-22T00:31:06.813Z,983.89
2023-10-22T00:32:06.765Z,983.89
2023-10-22T00:33:06.900Z,983.89
2023-10-22T00:34:06.884Z,983.89
2023-10-22T00:35:06.734Z,983.90
2023-10-22T00:36:06.758Z,983.89
2023-10-22T00:37:06.769Z,983.89
2023-10-22T00:38:06.708Z,983.90
2023-10-22T00:39:06.713Z,983.90
2023-10-22T00:40:06.678Z,983.92
2023-10-22T00:41:06.684Z,983.93
2023-10-22T00:42:06.734Z,983.94
2023-10-22T00:43:06.657Z,983.94
2023-10-22T00:44:06.632Z,983.94
2023-10-22T00:45:06.685Z,983.95
2023-10-22T00:46:06.690Z,983.96
2023-10-22T00:47:06.624Z,983.96
2023-10-22T00:48:06.643Z,983.99
2023-10-22T00:49:06.592Z,984.01
2023-10-22T00:50:06.585Z,984.01
2023-10-22T00:51:06.622Z,984.03
2023-10-22T00:52:06.558Z,984.04
2023-10-22T00:53:06.576Z,984.04
2023-10-22T00:54:06.539Z,984.04
2023-10-22T00:55:06.525Z,984.04
2023-10-22T00:56:06.512Z,984.05
2023-10-22T00:57:06.527Z,984.06
2023-10-22T00:58:06.485Z,984.07
2023-10-22T00:59:06.505Z,984.09
2023-10-22T01:00:06.506Z,984.09
2023-10-22T01:01:06.525Z,984.10
2023-10-22T01:02:06.457Z,984.10
2023-10-22T01:03:06.536Z,984.08
2023-10-22T01:04:06.604Z,984.08
2023-10-22T01:05:06.433Z,984.08
2023-10-22T01:06:06.425Z,984.09
2023-10-22T01:07:06.414Z,984.10
2023-10-22T01:08:06.390Z,984.12
2023-10-22T01:09:06.420Z,984.13
2023-10-22T01:10:06.390Z,984.13
2023-10-22T01:11:06.362Z,984.12
2023-10-22T01:12:06.474Z,984.14
2023-10-22T01:13:06.353Z,984.15
2023-10-22T01:14:06.324Z,984.14
2023-10-22T01:15:06.398Z,984.15
2023-10-22T01:16:06.321Z,984.15
2023-10-22T01:17:06.301Z,984.17
2023-10-22T01:18:06.357Z,984.18
2023-10-22T01:19:06.278Z,984.17
2023-10-22T01:20:06.270Z,984.19
2023-10-22T01:21:06.289Z,984.20
2023-10-22T01:22:06.261Z,984.19
2023-10-22T01:23:06.235Z,984.21
2023-10-22T01:24:06.227Z,984.18
2023-10-22T01:25:06.224Z,984.19
2023-10-22T01:26:06.217Z,984.20
2023-10-22T01:27:06.214Z,984.21
2023-10-22T01:28:06.174Z,984.22
2023-10-22T01:29:06.176Z,984.23
2023-10-22T01:30:06.191Z,984.24
2023-10-22T01:31:06.240Z,984.22
2023-10-22T01:32:06.159Z,984.25
2023-10-22T01:33:06.171Z,984.25
2023-10-22T01:34:06.109Z,984.25
2023-10-22T01:35:06.114Z,984.26
2023-10-22T01:36:06.135Z,984.26
2023-10-22T01:37:06.105Z,984.25
2023-10-22T01:38:06.070Z,984.26
2023-10-22T01:39:06.227Z,984.25
2023-10-22T01:40:06.161Z,984.26
2023-10-22T01:41:06.041Z,984.25
2023-10-22T01:42:06.071Z,984.26
2023-10-22T01:43:06.037Z,984.24
2023-10-22T01:44:06.002Z,984.24
2023-10-22T01:45:06.018Z,984.24
2023-10-22T01:46:05.987Z,984.24
2023-10-22T01:47:05.981Z,984.23
2023-10-22T01:48:06.041Z,984.23
2023-10-22T01:49:05.954Z,984.23
2023-10-22T01:50:05.937Z,984.26
2023-10-22T01:51:05.957Z,984.27
2023-10-22T01:52:05.918Z,984.28
2023-10-22T01:53:05.946Z,984.31
2023-10-22T01:54:05.981Z,984.28
2023-10-22T01:55:05.894Z,984.29
2023-10-22T01:56:05.876Z,984.28
2023-10-22T01:57:05.908Z,984.30
2023-10-22T01:58:05.860Z,984.30
2023-10-22T01:59:05.885Z,984.32
2023-10-22T02:00:05.870Z,984.32
2023-10-22T02:01:05.895Z,984.32
2023-10-22T02:02:05.839Z,984.31
2023-10-22T02:03:05.930Z,984.31
2023-10-22T02:04:05.788Z,984.32
2023-10-22T02:05:05.838Z,984.32
2023-10-22T02:06:05.832Z,984.32
2023-10-22T02:07:05.769Z,984.32
2023-10-22T02:08:05.744Z,984.32
2023-10-22T02:09:05.755Z,984.31
2023-10-22T02:10:05.755Z,984.30
2023-10-22T02:11:05.733Z,984.30
2023-10-22T02:12:05.730Z,984.29
2023-10-22T02:13:05.752Z,984.31
2023-10-22T02:14:05.691Z,984.30
2023-10-22T02:15:05.723Z,984.31
2023-10-22T02:16:05.684Z,984.29
2023-10-22T02:17:05.661Z,984.29
2023-10-22T02:18:05.782Z,984.30
2023-10-22T02:19:05.632Z,984.30
2023-10-22T02:20:05.625Z,984.29
2023-10-22T02:21:05.661Z,984.29
2023-10-22T02:22:05.597Z,984.27
2023-10-22T02:23:05.619Z,984.28
2023-10-22T02:24:05.592Z,984.30
2023-10-22T02:25:05.569Z,984.33
2023-10-22T02:26:05.585Z,984.32
2023-10-22T02:27:05.601Z,984.30
2023-10-22T02:28:05.534Z,984.32
2023-10-22T02:29:05.527Z,984.31
2023-10-22T02:30:05.534Z,984.31
2023-10-22T02:31:05.868Z,984.31
2023-10-22T02:32:05.503Z,984.31
2023-10-22T02:33:05.572Z,984.31
2023-10-22T02:34:05.478Z,984.31
2023-10-22T02:35:05.505Z,984.33
2023-10-22T02:36:05.519Z,984.32
2023-10-22T02:37:05.470Z,984.32
2023-10-22T02:38:05.429Z,984.30
2023-10-22T02:39:05.481Z,984.29
2023-10-22T02:40:05.407Z,984.28
2023-10-22T02:41:05.398Z,984.30
2023-10-22T02:42:05.442Z,984.32
2023-10-22T02:43:05.380Z,984.29
2023-10-22T02:44:05.360Z,984.32
2023-10-22T02:45:05.393Z,984.31
2023-10-22T02:46:05.391Z,984.34
2023-10-22T02:47:05.340Z,984.36
2023-10-22T02:48:05.388Z,984.37
2023-10-22T02:49:05.323Z,984.38
2023-10-22T02:50:05.327Z,984.38
2023-10-22T02:51:05.369Z,984.37
2023-10-22T02:52:05.297Z,984.37
2023-10-22T02:53:05.299Z,984.38
2023-10-22T02:54:05.291Z,984.39
2023-10-22T02:55:05.250Z,984.40
2023-10-22T02:56:05.232Z,984.41
2023-10-22T02:57:05.308Z,984.42
2023-10-22T02:58:05.214Z,984.40
2023-10-22T02:59:05.222Z,984.41
2023-10-22T03:00:05.210Z,984.39
2023-10-22T03:01:05.225Z,984.40
2023-10-22T03:02:05.169Z,984.40
2023-10-22T03:03:05.633Z,984.41
2023-10-22T03:04:05.464Z,984.42
2023-10-22T03:05:05.157Z,984.43
2023-10-22T03:06:05.158Z,984.45
2023-10-22T03:07:05.136Z,984.46
2023-10-22T03:08:05.155Z,984.47
2023-10-22T03:09:05.169Z,984.50
2023-10-22T03:10:05.082Z,984.53
2023-10-22T03:11:05.080Z,984.55
2023-10-22T03:12:05.101Z,984.56
2023-10-22T03:13:05.057Z,984.55
2023-10-22T03:14:05.045Z,984.54
2023-10-22T03:15:05.131Z,984.56
2023-10-22T03:16:05.063Z,984.59
2023-10-22T03:17:05.016Z,984.62
2023-10-22T03:18:05.100Z,984.65
2023-10-22T03:19:05.025Z,984.67
2023-10-22T03:20:04.985Z,984.71
2023-10-22T03:21:05.051Z,984.70
2023-10-22T03:22:04.957Z,984.67
2023-10-22T03:23:05.057Z,984.66
2023-10-22T03:24:05.165Z,984.65
2023-10-22T03:25:04.935Z,984.63
2023-10-22T03:26:04.938Z,984.66
2023-10-22T03:27:04.937Z,984.65
2023-10-22T03:28:04.903Z,984.65
2023-10-22T03:29:04.904Z,984.64
2023-10-22T03:30:05.025Z,984.64
2023-10-22T03:31:04.899Z,984.66
2023-10-22T03:32:04.865Z,984.67
2023-10-22T03:33:04.890Z,984.66
2023-10-22T03:34:04.840Z,984.66
2023-10-22T03:35:04.828Z,984.67
2023-10-22T03:36:04.877Z,984.66
2023-10-22T03:37:04.812Z,984.69
2023-10-22T03:38:04.807Z,984.68
2023-10-22T03:39:04.822Z,984.67
2023-10-22T03:40:04.789Z,984.69
2023-10-22T03:41:04.783Z,984.69
2023-10-22T03:42:04.831Z,984.72
2023-10-22T03:43:04.746Z,984.73
2023-10-22T03:44:04.740Z,984.74
2023-10-22T03:45:04.747Z,984.75
2023-10-22T03:46:04.768Z,984.78
2023-10-22T03:47:04.702Z,984.80
2023-10-22T03:48:04.837Z,984.81
2023-10-22T03:49:04.743Z,984.85
2023-10-22T03:50:04.676Z,984.86
2023-10-22T03:51:04.764Z,984.87
2023-10-22T03:52:04.664Z,984.87
2023-10-22T03:53:04.653Z,984.88
2023-10-22T03:54:04.636Z,984.86
2023-10-22T03:55:04.637Z,984.85
2023-10-22T03:56:04.609Z,984.89
2023-10-22T03:57:04.673Z,984.87
2023-10-22T03:58:04.613Z,984.88
2023-10-22T03:59:04.572Z,984.89
2023-10-22T04:00:04.619Z,984.90
2023-10-22T04:01:04.548Z,984.91
2023-10-22T04:02:04.572Z,984.90
2023-10-22T04:03:04.572Z,984.92
2023-10-22T04:04:04.564Z,984.94
2023-10-22T04:05:04.510Z,984.94
2023-10-22T04:06:04.600Z,984.97
2023-10-22T04:07:04.485Z,985.00
2023-10-22T04:08:04.495Z,985.04
2023-10-22T04:09:04.569Z,985.08
2023-10-22T04:10:04.462Z,985.09
2023-10-22T04:11:04.450Z,985.13
2023-10-22T04:12:04.452Z,985.17
2023-10-22T04:13:04.425Z,985.19
2023-10-22T04:14:04.422Z,985.19
2023-10-22T04:15:04.458Z,985.22
2023-10-22T04:16:04.410Z,985.25
2023-10-22T04:17:04.381Z,985.22
2023-10-22T04:18:04.444Z,985.23
2023-10-22T04:19:04.367Z,985.24
2023-10-22T04:20:04.416Z,985.24
2023-10-22T04:21:04.363Z,985.24
2023-10-22T04:22:04.340Z,985.23
2023-10-22T04:23:04.313Z,985.25
2023-10-22T04:24:04.349Z,985.28
2023-10-22T04:25:04.306Z,985.28
2023-10-22T04:26:04.290Z,985.29
2023-10-22T04:27:04.312Z,985.30
2023-10-22T04:28:04.271Z,985.29
2023-10-22T04:29:04.260Z,985.29
2023-10-22T04:30:04.298Z,985.26
2023-10-22T04:31:04.297Z,985.27
2023-10-22T04:32:04.248Z,985.26
2023-10-22T04:33:04.268Z,985.29
2023-10-22T04:34:04.196Z,985.29
2023-10-22T04:35:04.308Z,985.29
2023-10-22T04:36:04.232Z,985.29
2023-10-22T04:37:04.162Z,985.28
2023-10-22T04:38:04.157Z,985.27
2023-10-22T04:39:04.172Z,985.25
2023-10-22T04:40:04.131Z,985.25
2023-10-22T04:41:04.122Z,985.24
2023-10-22T04:42:04.731Z,985.25
2023-10-22T04:43:04.098Z,985.22
2023-10-22T04:44:04.089Z,985.23
2023-10-22T04:45:04.129Z,985.22
2023-10-22T04:46:04.096Z,985.22
2023-10-22T04:47:04.065Z,985.24
2023-10-22T04:48:04.109Z,985.24
2023-10-22T04:49:04.035Z,985.26
2023-10-22T04:50:04.025Z,985.27
2023-10-22T04:51:04.035Z,985.28
2023-10-22T04:52:04.019Z,985.29
2023-10-22T04:53:03.988Z,985.30
2023-10-22T04:54:04.051Z,985.32
2023-10-22T04:55:03.976Z,985.33
2023-10-22T04:56:03.967Z,985.33
2023-10-22T04:57:04.023Z,985.32
2023-10-22T04:58:03.941Z,985.32
2023-10-22T04:59:03.924Z,985.32
2023-10-22T05:00:03.996Z,985.32
2023-10-22T05:01:03.904Z,985.30
2023-10-22T05:02:03.945Z,985.29
2023-10-22T05:03:03.927Z,985.27
2023-10-22T05:04:04.075Z,985.26
2023-10-22T05:05:03.880Z,985.27
2023-10-22T05:06:03.916Z,985.26
2023-10-22T05:07:03.845Z,985.27
2023-10-22T05:08:03.838Z,985.29
2023-10-22T05:09:03.918Z,985.31
2023-10-22T05:10:03.821Z,985.32
2023-10-22T05:11:03.810Z,985.35
2023-10-22T05:12:03.836Z,985.35
2023-10-22T05:13:03.786Z,985.36
2023-10-22T05:14:03.803Z,985.38
2023-10-22T05:15:03.789Z,985.40
2023-10-22T05:16:03.832Z,985.43
2023-10-22T05:17:03.749Z,985.44
2023-10-22T05:18:03.872Z,985.48
2023-10-22T05:19:03.769Z,985.51
2023-10-22T05:20:03.715Z,985.53
2023-10-22T05:21:03.729Z,985.55
2023-10-22T05:22:03.697Z,985.54
2023-10-22T05:23:03.679Z,985.56
2023-10-22T05:24:03.748Z,985.58
2023-10-22T05:25:03.736Z,985.57
2023-10-22T05:26:03.601Z,985.59
2023-10-22T05:27:03.633Z,985.59
2023-10-22T05:28:03.598Z,985.60
2023-10-22T05:29:03.603Z,985.60
2023-10-22T05:30:03.627Z,985.60
2023-10-22T05:31:03.558Z,985.61
2023-10-22T05:32:03.581Z,985.61
2023-10-22T05:33:03.576Z,985.61
2023-10-22T05:34:03.523Z,985.61
2023-10-22T05:35:03.522Z,985.64
2023-10-22T05:36:03.528Z,985.63
2023-10-22T05:37:03.474Z,985.64
2023-10-22T05:38:03.470Z,985.63
2023-10-22T05:39:03.472Z,985.64
2023-10-22T05:40:03.449Z,985.65
2023-10-22T05:41:03.447Z,985.65
2023-10-22T05:42:03.459Z,985.67
2023-10-22T05:43:03.413Z,985.69
2023-10-22T05:44:03.408Z,985.69
2023-10-22T05:45:03.404Z,985.70
2023-10-22T05:46:03.411Z,985.70
2023-10-22T05:47:03.366Z,985.71
2023-10-22T05:48:03.409Z,985.72
2023-10-22T05:49:03.341Z,985.72
2023-10-22T05:50:03.341Z,985.72
2023-10-22T05:51:03.706Z,985.73
2023-10-22T05:52:03.316Z,985.76
2023-10-22T05:53:03.305Z,985.78
2023-10-22T05:54:03.341Z,985.81
2023-10-22T05:55:03.279Z,985.83
2023-10-22T05:56:03.291Z,985.81
2023-10-22T05:57:03.288Z,985.83
2023-10-22T05:58:03.257Z,985.83
2023-10-22T05:59:03.233Z,985.85
2023-10-22T06:00:03.281Z,985.85
2023-10-22T06:01:03.229Z,985.85
2023-10-22T06:02:03.247Z,985.88
2023-10-22T06:03:03.255Z,985.91
2023-10-22T06:04:03.255Z,985.92
2023-10-22T06:05:07.785Z,985.94
2023-10-22T06:06:03.187Z,985.94
2023-10-22T06:07:03.156Z,985.97
2023-10-22T06:08:03.165Z,985.98
2023-10-22T06:09:03.171Z,985.99
2023-10-22T06:10:03.126Z,985.99
2023-10-22T06:11:03.157Z,986.00
2023-10-22T06:12:03.123Z,986.01
2023-10-22T06:13:03.109Z,985.99
2023-10-22T06:14:03.087Z,985.99
2023-10-22T06:15:03.093Z,985.98
2023-10-22T06:16:03.119Z,985.97
2023-10-22T06:17:03.050Z,985.97
2023-10-22T06:18:03.146Z,985.98
2023-10-22T06:19:03.025Z,985.99
2023-10-22T06:20:03.034Z,986.00
2023-10-22T06:21:03.038Z,986.01
2023-10-22T06:22:03.011Z,986.02
2023-10-22T06:23:02.992Z,986.01
2023-10-22T06:24:03.029Z,986.03
2023-10-22T06:25:02.965Z,986.03
2023-10-22T06:26:02.960Z,986.05
2023-10-22T06:27:02.966Z,986.04
2023-10-22T06:28:02.969Z,986.06
2023-10-22T06:29:02.913Z,986.07
2023-10-22T06:30:02.977Z,986.08
2023-10-22T06:31:02.896Z,986.09
2023-10-22T06:32:02.906Z,986.13
2023-10-22T06:33:02.956Z,986.14
2023-10-22T06:34:02.909Z,986.16
2023-10-22T06:35:02.862Z,986.16
2023-10-22T06:36:02.873Z,986.19
2023-10-22T06:37:02.824Z,986.19
2023-10-22T06:38:02.822Z,986.21
2023-10-22T06:39:02.881Z,986.26
2023-10-22T06:40:02.847Z,986.31
2023-10-22T06:41:02.782Z,986.33
2023-10-22T06:42:02.869Z,986.35
2023-10-22T06:43:02.767Z,986.37
2023-10-22T06:44:02.755Z,986.39
2023-10-22T06:45:02.768Z,986.40
2023-10-22T06:46:02.786Z,986.39
2023-10-22T06:47:02.732Z,986.42
2023-10-22T06:48:02.789Z,986.42
2023-10-22T06:49:02.698Z,986.41
2023-10-22T06:50:02.691Z,986.43
2023-10-22T06:51:02.714Z,986.43
2023-10-22T06:52:02.687Z,986.43
2023-10-22T06:53:02.657Z,986.41
2023-10-22T06:54:02.675Z,986.42
2023-10-22T06:55:02.636Z,986.41
2023-10-22T06:56:02.643Z,986.42
2023-10-22T06:57:02.648Z,986.44
2023-10-22T06:58:02.604Z,986.41
2023-10-22T06:59:02.591Z,986.47
2023-10-22T07:00:02.624Z,986.44
2023-10-22T07:01:02.581Z,986.44
2023-10-22T07:02:02.605Z,986.42
2023-10-22T07:03:02.627Z,986.43
2023-10-22T07:04:05.868Z,986.45
2023-10-22T07:05:02.542Z,986.43
2023-10-22T07:06:02.603Z,986.44
2023-10-22T07:07:02.511Z,986.43
2023-10-22T07:08:02.531Z,986.42
2023-10-22T07:09:02.546Z,986.46
2023-10-22T07:10:02.482Z,986.44
2023-10-22T07:11:02.464Z,986.45
2023-10-22T07:12:02.575Z,986.45
2023-10-22T07:13:02.480Z,986.51
2023-10-22T07:14:02.464Z,986.55
2023-10-22T07:15:02.458Z,986.57
2023-10-22T07:16:02.448Z,986.60
2023-10-22T07:17:02.402Z,986.64
2023-10-22T07:18:02.486Z,986.64
2023-10-22T07:19:02.434Z,986.65
2023-10-22T07:20:02.389Z,986.65
2023-10-22T07:21:02.434Z,986.67
2023-10-22T07:22:02.366Z,986.67
2023-10-22T07:23:02.340Z,986.68
2023-10-22T07:24:02.367Z,986.72
2023-10-22T07:25:02.360Z,986.73
2023-10-22T07:26:02.340Z,986.75
2023-10-22T07:27:02.318Z,986.75
2023-10-22T07:28:02.295Z,986.74
2023-10-22T07:29:02.276Z,986.79
2023-10-22T07:30:02.293Z,986.83
2023-10-22T07:31:02.264Z,986.83
2023-10-22T07:32:02.252Z,986.89
2023-10-22T07:33:02.313Z,986.90
2023-10-22T07:34:02.237Z,986.93
2023-10-22T07:35:02.217Z,986.95
2023-10-22T07:36:02.317Z,986.96
2023-10-22T07:37:02.205Z,986.95
2023-10-22T07:38:02.193Z,986.97
2023-10-22T07:39:02.195Z,986.99
2023-10-22T07:40:02.176Z,986.94
2023-10-22T07:41:02.346Z,986.95
2023-10-22T07:42:02.192Z,986.95
2023-10-22T07:43:02.199Z,986.96
2023-10-22T07:44:02.116Z,986.98
2023-10-22T07:45:02.162Z,987.01
2023-10-22T07:46:02.237Z,987.07
2023-10-22T07:47:02.121Z,987.05
2023-10-22T07:48:02.149Z,987.09
2023-10-22T07:49:02.069Z,987.10
2023-10-22T07:50:02.056Z,987.12
2023-10-22T07:51:02.085Z,987.16
2023-10-22T07:52:04.535Z,987.22
2023-10-22T07:53:02.031Z,987.19
2023-10-22T07:54:02.056Z,987.21
2023-10-22T07:55:02.011Z,987.23
2023-10-22T07:56:02.011Z,987.28
2023-10-22T07:57:02.034Z,987.30
2023-10-22T07:58:01.978Z,987.33
2023-10-22T07:59:01.968Z,987.37
2023-10-22T08:00:01.980Z,987.40
2023-10-22T08:01:01.977Z,987.43
2023-10-22T08:02:01.937Z,987.42
2023-10-22T08:03:02.007Z,987.43
2023-10-22T08:04:02.004Z,987.41
2023-10-22T08:05:01.910Z,987.43
2023-10-22T08:06:01.939Z,987.42
2023-10-22T08:07:01.893Z,987.41
2023-10-22T08:08:01.872Z,987.42
2023-10-22T08:09:01.955Z,987.37
2023-10-22T08:10:01.858Z,987.39
2023-10-22T08:11:01.872Z,987.37
2023-10-22T08:12:03.608Z,987.39
2023-10-22T08:13:01.837Z,987.39
2023-10-22T08:14:01.841Z,987.39
2023-10-22T08:15:01.855Z,987.41
2023-10-22T08:16:01.800Z,987.45
2023-10-22T08:17:01.792Z,987.46
2023-10-22T08:18:01.816Z,987.48
2023-10-22T08:19:01.830Z,987.50
2023-10-22T08:20:01.766Z,987.54
2023-10-22T08:21:01.771Z,987.58
2023-10-22T08:22:01.739Z,987.57
2023-10-22T08:23:03.507Z,987.59
2023-10-22T08:24:01.748Z,987.60
2023-10-22T08:25:01.716Z,987.61
2023-10-22T08:26:01.713Z,987.63
2023-10-22T08:27:01.730Z,987.68
2023-10-22T08:28:01.717Z,987.69
2023-10-22T08:29:01.694Z,987.70
2023-10-22T08:30:01.696Z,987.72
2023-10-22T08:31:01.656Z,987.79
2023-10-22T08:32:01.636Z,987.79
2023-10-22T08:33:01.752Z,987.79
2023-10-22T08:34:01.856Z,987.79
2023-10-22T08:35:01.628Z,987.82
2023-10-22T08:36:01.608Z,987.82
2023-10-22T08:37:01.635Z,987.81
2023-10-22T08:38:01.584Z,987.81
2023-10-22T08:39:01.610Z,987.77
2023-10-22T08:40:01.618Z,987.78
2023-10-22T08:41:01.563Z,987.80
2023-10-22T08:42:01.650Z,987.81
2023-10-22T08:43:01.536Z,987.83
2023-10-22T08:44:01.524Z,987.83
2023-10-22T08:45:01.540Z,987.81
2023-10-22T08:46:01.543Z,987.83
2023-10-22T08:47:01.509Z,987.84
2023-10-22T08:48:01.582Z,987.84
2023-10-22T08:49:01.469Z,987.86
2023-10-22T08:50:01.460Z,987.86
2023-10-22T08:51:01.468Z,987.87
2023-10-22T08:52:01.448Z,987.84
2023-10-22T08:53:01.431Z,987.85
2023-10-22T08:54:01.487Z,987.86
2023-10-22T08:55:01.413Z,987.85
2023-10-22T08:56:01.395Z,987.86
2023-10-22T08:57:01.473Z,987.87
2023-10-22T08:58:01.394Z,987.87
2023-10-22T08:59:01.365Z,987.88
2023-10-22T09:00:01.391Z,987.88
2023-10-22T09:01:01.398Z,987.85
2023-10-22T09:02:01.350Z,987.88
2023-10-22T09:03:01.379Z,987.86
2023-10-22T09:04:01.383Z,987.86
2023-10-22T09:05:01.311Z,987.87
2023-10-22T09:06:01.322Z,987.88
2023-10-22T09:07:01.287Z,987.91
2023-10-22T09:08:01.485Z,987.90
2023-10-22T09:09:01.296Z,987.94
2023-10-22T09:10:01.271Z,987.96
2023-10-22T09:11:01.243Z,987.94
2023-10-22T09:12:01.247Z,987.94
2023-10-22T09:13:01.315Z,987.95
2023-10-22T09:14:01.212Z,987.97
2023-10-22T09:15:01.286Z,987.99
2023-10-22T09:16:01.258Z,988.00
2023-10-22T09:17:01.204Z,988.02
2023-10-22T09:18:01.239Z,988.03
2023-10-22T09:19:01.190Z,988.03
2023-10-22T09:20:01.155Z,988.04
2023-10-22T09:21:01.227Z,988.03
2023-10-22T09:22:01.135Z,988.07
2023-10-22T09:23:01.130Z,988.09
2023-10-22T09:24:01.167Z,988.08
2023-10-22T09:25:01.111Z,988.09
2023-10-22T09:26:01.094Z,988.11
2023-10-22T09:27:01.127Z,988.10
2023-10-22T09:28:01.081Z,988.12
2023-10-22T09:29:01.074Z,988.11
2023-10-22T09:30:01.116Z,988.11
2023-10-22T09:31:01.204Z,988.08
2023-10-22T09:32:01.068Z,988.08
2023-10-22T09:33:01.107Z,988.11
2023-10-22T09:34:01.046Z,988.07
2023-10-22T09:35:01.065Z,988.08
2023-10-22T09:36:02.271Z,988.09
2023-10-22T09:37:00.999Z,988.14
2023-10-22T09:38:00.988Z,988.15
2023-10-22T09:39:01.048Z,988.14
2023-10-22T09:40:00.969Z,988.15
2023-10-22T09:41:00.975Z,988.15
2023-10-22T09:42:09.831Z,988.17
2023-10-22T09:43:00.950Z,988.18
2023-10-22T09:44:00.995Z,988.20
2023-10-22T09:45:00.963Z,988.19
2023-10-22T09:46:00.915Z,988.19
2023-10-22T09:47:00.949Z,988.22
2023-10-22T09:48:11.149Z,988.23
2023-10-22T09:49:01.046Z,988.25
2023-10-22T09:50:00.909Z,988.24
2023-10-22T09:51:00.915Z,988.24
2023-10-22T09:52:00.865Z,988.27
2023-10-22T09:53:00.892Z,988.29
2023-10-22T09:54:00.873Z,988.26
2023-10-22T09:55:00.843Z,988.28
2023-10-22T09:56:00.853Z,988.28
2023-10-22T09:57:00.849Z,988.31
2023-10-22T09:58:00.811Z,988.33
2023-10-22T09:59:00.809Z,988.35
2023-10-22T10:00:00.818Z,988.35
2023-10-22T10:01:00.925Z,988.35
2023-10-22T10:02:00.914Z,988.36
2023-10-22T10:03:00.866Z,988.37
2023-10-22T10:04:00.842Z,988.39
2023-10-22T10:05:00.781Z,988.43
2023-10-22T10:06:00.780Z,988.45
2023-10-22T10:07:00.744Z,988.46
2023-10-22T10:08:00.728Z,988.47
2023-10-22T10:09:00.770Z,988.49
2023-10-22T10:10:00.728Z,988.48
2023-10-22T10:11:00.747Z,988.50
2023-10-22T10:12:00.702Z,988.51
2023-10-22T10:13:00.692Z,988.50
2023-10-22T10:14:00.673Z,988.49
2023-10-22T10:15:00.750Z,988.48
2023-10-22T10:16:00.669Z,988.49
2023-10-22T10:17:00.717Z,988.51
2023-10-22T10:18:00.674Z,988.49
2023-10-22T10:19:00.636Z,988.50
2023-10-22T10:20:00.634Z,988.49
2023-10-22T10:21:00.662Z,988.53
2023-10-22T10:22:00.656Z,988.53
2023-10-22T10:23:00.638Z,988.53
2023-10-22T10:24:00.609Z,988.56
2023-10-22T10:25:00.582Z,988.60
2023-10-22T10:26:00.567Z,988.61
2023-10-22T10:27:00.582Z,988.60
2023-10-22T10:28:00.612Z,988.61
2023-10-22T10:29:00.552Z,988.63
2023-10-22T10:30:00.554Z,988.63
2023-10-22T10:31:00.579Z,988.68
2023-10-22T10:32:00.509Z,988.67
2023-10-22T10:33:15.148Z,988.68
2023-10-22T10:34:00.511Z,988.69
2023-10-22T10:35:00.533Z,988.69
2023-10-22T10:36:00.484Z,988.72
2023-10-22T10:37:00.474Z,988.69
2023-10-22T10:38:00.454Z,988.70
2023-10-22T10:39:00.475Z,988.71
2023-10-22T10:40:00.439Z,988.71
2023-10-22T10:41:00.462Z,988.70
2023-10-22T10:42:00.429Z,988.70
2023-10-22T10:43:00.416Z,988.71
2023-10-22T10:44:00.424Z,988.71
2023-10-22T10:45:00.417Z,988.71
2023-10-22T10:46:00.389Z,988.73
2023-10-22T10:47:00.449Z,988.75
2023-10-22T10:48:00.527Z,988.74
2023-10-22T10:49:00.579Z,988.73
2023-10-22T10:50:00.384Z,988.75
2023-10-22T10:51:00.850Z,988.74
2023-10-22T10:52:00.343Z,988.75
2023-10-22T10:53:00.332Z,988.75
2023-10-22T10:54:00.435Z,988.74
2023-10-22T10:55:01.210Z,988.73
2023-10-22T10:56:00.544Z,988.73
2023-10-22T10:57:00.607Z,988.73
2023-10-22T10:58:01.624Z,988.74
2023-10-22T10:59:00.402Z,988.75
2023-10-22T11:00:00.335Z,988.71
2023-10-22T11:01:05.128Z,988.74
2023-10-22T11:02:00.283Z,988.74
2023-10-22T11:03:00.330Z,988.74
2023-10-22T11:04:00.298Z,988.74
2023-10-22T11:05:00.249Z,988.74
2023-10-22T11:06:00.265Z,988.74
2023-10-22T11:07:13.374Z,988.75
2023-10-22T11:08:00.245Z,988.77
2023-10-22T11:09:00.256Z,988.76
2023-10-22T11:10:00.259Z,988.76
2023-10-22T11:11:00.179Z,988.76
2023-10-22T11:12:00.182Z,988.76
2023-10-22T11:13:00.163Z,988.76
2023-10-22T11:14:00.166Z,988.76
2023-10-22T11:15:00.226Z,988.77
2023-10-22T11:16:00.127Z,988.76
2023-10-22T11:17:00.131Z,988.75
2023-10-22T11:18:00.221Z,988.78
2023-10-22T11:19:00.118Z,988.78
2023-10-22T11:20:00.129Z,988.79
2023-10-22T11:21:00.136Z,988.79
2023-10-22T11:22:00.080Z,988.81
2023-10-22T11:23:00.111Z,988.82
2023-10-22T11:24:00.103Z,988.82
2023-10-22T11:25:00.135Z,988.81
2023-10-22T11:26:00.050Z,988.81
2023-10-22T11:27:00.182Z,988.81
2023-10-22T11:28:00.079Z,988.81
2023-10-22T11:29:00.028Z,988.82
2023-10-22T11:30:00.012Z,988.82
2023-10-22T11:31:00.093Z,988.83
2023-10-22T11:32:00.006Z,988.84
2023-10-22T11:33:00.049Z,988.82
2023-10-22T11:33:59.979Z,988.83
2023-10-22T11:34:59.978Z,988.82
2023-10-22T11:35:59.968Z,988.83
2023-10-22T11:36:59.970Z,988.81
2023-10-22T11:37:59.936Z,988.82
2023-10-22T11:38:59.938Z,988.83
2023-10-22T11:39:59.943Z,988.83
2023-10-22T11:40:59.913Z,988.83
2023-10-22T11:41:59.956Z,988.83
2023-10-22T11:42:59.896Z,988.82
2023-10-22T11:43:59.881Z,988.83
2023-10-22T11:44:59.926Z,988.84
2023-10-22T11:46:00.391Z,988.86
2023-10-22T11:46:59.854Z,988.86
2023-10-22T11:47:59.891Z,988.86
2023-10-22T11:48:59.841Z,988.87
2023-10-22T11:49:59.818Z,988.88
2023-10-22T11:50:59.877Z,988.89
2023-10-22T11:51:59.851Z,988.89
2023-10-22T11:52:59.802Z,988.89
2023-10-22T11:53:59.831Z,988.90
2023-10-22T11:54:59.783Z,988.91
2023-10-22T11:55:59.769Z,988.91
2023-10-22T11:56:59.799Z,988.91
2023-10-22T11:57:59.777Z,988.92
2023-10-22T11:59:01.675Z,988.93
2023-10-22T11:59:59.794Z,988.95
2023-10-22T12:00:59.722Z,988.97
2023-10-22T12:01:59.755Z,989.02
2023-10-22T12:02:59.808Z,989.03
2023-10-22T12:03:59.835Z,989.02
2023-10-22T12:05:01.299Z,989.07
2023-10-22T12:05:59.748Z,989.05
2023-10-22T12:06:59.678Z,989.06
2023-10-22T12:07:59.674Z,989.03
2023-10-22T12:09:00.074Z,989.09
2023-10-22T12:09:59.650Z,989.08
2023-10-22T12:10:59.635Z,989.07
2023-10-22T12:11:59.690Z,989.10
2023-10-22T12:12:59.627Z,989.13
2023-10-22T12:13:59.640Z,989.10
2023-10-22T12:14:59.634Z,989.10
2023-10-22T12:15:59.604Z,989.12
2023-10-22T12:16:59.630Z,989.14
2023-10-22T12:17:59.598Z,989.12
2023-10-22T12:18:59.596Z,989.15
2023-10-22T12:19:59.562Z,989.13
2023-10-22T12:20:59.566Z,989.12
2023-10-22T12:21:59.554Z,989.14
2023-10-22T12:22:59.772Z,989.11
2023-10-22T12:24:02.758Z,989.13
2023-10-22T12:24:59.621Z,989.15
2023-10-22T12:25:59.509Z,989.13
2023-10-22T12:26:59.597Z,989.15
2023-10-22T12:27:59.716Z,989.15
2023-10-22T12:28:59.469Z,989.17
2023-10-22T12:29:59.545Z,989.16